Погода Кислыена неделю

Смоленская область, Россия

22 - 28 мая
  • 22мая
    Сегодня
    +11°
    +23°
    Небольшая облачность, ливень
    ВремяПогодаТемператураВлажностьДавлениеВетер, м/сВероятность осадков
    00:00Ясно и безоблачно+13°C91 %743 мм0.4 м/с2 %
    03:00Ясно и безоблачно+11°C93 %743 мм0.1 м/с2 %
    06:00Ясно и безоблачно+12°C92 %743 мм0.5 м/с2 %
    09:00Ясно и безоблачно+19°C75 %744 мм0.9 м/с2 %
    12:00Небольшая облачность, возможен дождь с грозой+22°C63 %744 мм1.4 м/с9 %
    15:00Небольшая облачность, ливень+20°C77 %744 мм1.6 м/с38 %
    18:00Облачно с прояснениями+18°C74 %743 мм1.3 м/с30 %
    21:00Практически безоблачно+15°C85 %744 мм0.4 м/с3 %
  • 23мая
    Четверг
    +9°
    +23°
    Ясно и безоблачно
    ВремяПогодаТемператураВлажностьДавлениеВетер, м/сВероятность осадков
    00:00Ясно и безоблачно+13°C93 %744 мм0.8 м/с2 %
    03:00Ясно и безоблачно+12°C76 %745 мм0.9 м/с2 %
    06:00Ясно и безоблачно+12°C69 %746 мм1.3 м/с2 %
    09:00Ясно и безоблачно+17°C62 %747 мм1.9 м/с2 %
    12:00Ясно и безоблачно+21°C50 %748 мм2.5 м/с2 %
    15:00Ясно и безоблачно+23°C45 %748 мм2.5 м/с2 %
    18:00Ясно и безоблачно+20°C48 %747 мм2.0 м/с2 %
    21:00Ясно и безоблачно+16°C54 %748 мм1.3 м/с2 %
  • 24мая
    Пятница
    +8°
    +21°
    Ясно и безоблачно
    ВремяПогодаТемператураВлажностьДавлениеВетер, м/сВероятность осадков
    00:00Ясно и безоблачно+12°C59 %749 мм1.3 м/с2 %
    03:00Ясно и безоблачно+10°C63 %750 мм1.1 м/с2 %
    06:00Ясно и безоблачно+10°C63 %751 мм1.2 м/с2 %
    09:00Ясно и безоблачно+15°C55 %751 мм2.0 м/с2 %
    12:00Ясно и безоблачно+19°C44 %751 мм2.3 м/с2 %
    15:00Ясно и безоблачно+21°C41 %751 мм2.3 м/с2 %
    18:00Ясно и безоблачно+19°C42 %750 мм1.5 м/с2 %
    21:00Ясно и безоблачно+14°C57 %750 мм0.8 м/с2 %
  • 25мая
    Суббота
    +8°
    +23°
    Ясно и безоблачно
    ВремяПогодаТемператураВлажностьДавлениеВетер, м/сВероятность осадков
    00:00Ясно и безоблачно+11°C65 %750 мм0.9 м/с2 %
    03:00Ясно и безоблачно+9°C69 %750 мм0.7 м/с2 %
    06:00Ясно и безоблачно+9°C69 %750 мм0.8 м/с2 %
    09:00Ясно и безоблачно+16°C56 %750 мм1.4 м/с2 %
    12:00Ясно и безоблачно+20°C43 %750 мм1.8 м/с2 %
    15:00Ясно и безоблачно+22°C41 %749 мм1.7 м/с3 %
    18:00Ясно и безоблачно+20°C42 %748 мм1.0 м/с2 %
    21:00Ясно и безоблачно+15°C64 %748 мм0.2 м/с3 %
  • 26мая
    Воскресенье
    +9°
    +24°
    Небольшая облачность
    ВремяПогодаТемператураВлажностьДавлениеВетер, м/сВероятность осадков
    00:00Ясно и безоблачно+11°C75 %748 мм0.3 м/с2 %
    03:00Ясно и безоблачно+9°C79 %748 мм0.0 м/с2 %
    06:00Облачно с прояснениями+11°C80 %748 мм0.2 м/с2 %
    09:00Облачно с прояснениями+18°C60 %748 мм0.5 м/с2 %
    12:00Облачно с прояснениями+21°C43 %749 мм0.9 м/с2 %
    15:00Небольшая облачность+23°C41 %748 мм0.9 м/с6 %
    18:00Ясно и безоблачно+22°C41 %747 мм0.4 м/с8 %
    21:00Ясно и безоблачно+16°C64 %747 мм0.0 м/с2 %
Мы используем cookies
Соглашаюсь